createdAt,value
2019-02-22T00:01:12.551Z,94757.81
2019-02-22T00:03:41.160Z,94760.75
2019-02-22T00:06:09.683Z,94756.54
2019-02-22T00:08:37.533Z,94753.55
2019-02-22T00:11:06.095Z,94758.64
2019-02-22T00:13:34.304Z,94757.80
2019-02-22T00:16:02.138Z,94750.98
2019-02-22T00:18:30.687Z,94747.57
2019-02-22T00:20:59.416Z,94747.15
2019-02-22T00:23:27.630Z,94746.31
2019-02-22T00:25:55.801Z,94745.86
2019-02-22T00:28:24.002Z,94739.48
2019-02-22T00:30:51.991Z,94741.62
2019-02-22T00:33:20.458Z,94740.74
2019-02-22T00:35:48.676Z,94736.07
2019-02-22T00:38:28.432Z,94733.15
2019-02-22T00:41:15.882Z,94736.96
2019-02-22T00:43:44.456Z,94735.72
2019-02-22T00:46:13.037Z,94743.34
2019-02-22T00:48:41.323Z,94739.08
2019-02-22T00:51:09.847Z,94744.16
2019-02-22T00:53:37.803Z,94750.94
2019-02-22T00:56:06.006Z,94743.72
2019-02-22T00:58:34.159Z,94747.58
2019-02-22T01:01:02.323Z,94745.41
2019-02-22T01:03:30.613Z,94749.17
2019-02-22T01:05:58.128Z,94751.75
2019-02-22T01:08:26.702Z,94744.96
2019-02-22T01:10:54.942Z,94747.48
2019-02-22T01:13:23.536Z,94752.14
2019-02-22T01:15:51.329Z,94748.75
2019-02-22T01:18:19.250Z,94749.19
2019-02-22T01:20:54.390Z,94749.62
2019-02-22T01:23:24.127Z,94747.92
2019-02-22T01:25:52.677Z,94744.94
2019-02-22T01:28:21.322Z,94747.11
2019-02-22T01:30:49.183Z,94738.56
2019-02-22T01:33:17.771Z,94741.08
2019-02-22T01:35:46.364Z,94749.55
2019-02-22T01:38:14.639Z,94747.81
2019-02-22T01:40:44.165Z,94743.19
2019-02-22T01:43:19.541Z,94735.14
2019-02-22T01:48:56.793Z,94733.89
2019-02-22T01:51:25.003Z,94728.38
2019-02-22T01:53:54.110Z,94729.62
2019-02-22T01:56:29.627Z,94729.62
2019-02-22T01:58:58.363Z,94730.48
2019-02-22T02:01:25.923Z,94717.23
2019-02-22T02:03:54.074Z,94718.09
2019-02-22T02:06:21.940Z,94722.30
2019-02-22T02:08:50.113Z,94720.62
2019-02-22T02:11:18.694Z,94722.73
2019-02-22T02:13:46.883Z,94725.21
2019-02-22T02:16:15.175Z,94726.53
2019-02-22T02:18:43.744Z,94735.41
2019-02-22T02:21:12.132Z,94738.79
2019-02-22T02:23:40.315Z,94746.01
2019-02-22T02:26:08.181Z,94743.90
2019-02-22T02:28:36.364Z,94752.34
2019-02-22T02:31:04.537Z,94755.34
2019-02-22T02:33:32.773Z,94752.81
2019-02-22T02:36:01.009Z,94763.05
2019-02-22T02:38:29.219Z,94760.92
2019-02-22T02:41:08.119Z,94748.22
2019-02-22T02:43:34.054Z,94755.03
2019-02-22T02:46:02.226Z,94753.74
2019-02-22T02:48:30.395Z,94757.08
2019-02-22T02:50:58.673Z,94759.63
2019-02-22T02:53:26.491Z,94759.71
2019-02-22T02:55:55.039Z,94767.34
2019-02-22T02:58:23.321Z,94759.70
2019-02-22T03:00:51.467Z,94757.50
2019-02-22T03:03:19.594Z,94759.22
2019-02-22T03:06:07.401Z,94764.80
2019-02-22T03:08:36.594Z,94767.79
2019-02-22T03:11:04.918Z,94761.81
2019-02-22T03:13:33.687Z,94766.91
2019-02-22T03:16:01.908Z,94769.48
2019-02-22T03:18:30.457Z,94769.88
2019-02-22T03:20:58.683Z,94776.70
2019-02-22T03:23:26.937Z,94775.44
2019-02-22T03:25:55.087Z,94772.48
2019-02-22T03:28:23.377Z,94777.59
2019-02-22T03:30:51.912Z,94772.48
2019-02-22T03:33:20.450Z,94775.44
2019-02-22T03:35:48.723Z,94775.05
2019-02-22T03:38:17.245Z,94777.52
2019-02-22T03:40:45.097Z,94780.53
2019-02-22T03:43:13.357Z,94776.31
2019-02-22T03:45:41.747Z,94784.81
2019-02-22T03:48:09.623Z,94780.59
2019-02-22T03:50:37.797Z,94768.70
2019-02-22T03:53:11.107Z,94776.33
2019-02-22T03:55:39.404Z,94777.23
2019-02-22T03:58:07.750Z,94778.50
2019-02-22T04:00:47.473Z,94788.69
2019-02-22T04:03:15.274Z,94781.48
2019-02-22T04:05:43.886Z,94783.60
2019-02-22T04:08:12.047Z,94785.33
2019-02-22T04:10:40.337Z,94786.20
2019-02-22T04:13:08.617Z,94791.28
2019-02-22T04:15:36.796Z,94795.10
2019-02-22T04:18:05.052Z,94797.67
2019-02-22T04:20:33.771Z,94792.98
2019-02-22T04:23:01.950Z,94789.19
2019-02-22T04:25:30.467Z,94787.88
2019-02-22T04:27:59.042Z,94787.87
2019-02-22T04:30:27.536Z,94790.86
2019-02-22T04:32:55.726Z,94789.14
2019-02-22T04:35:24.231Z,94792.97
2019-02-22T04:37:52.557Z,94792.56
2019-02-22T04:40:21.169Z,94795.52
2019-02-22T04:42:49.841Z,94795.96
2019-02-22T04:45:18.071Z,94794.69
2019-02-22T04:47:46.298Z,94800.20
2019-02-22T04:50:14.859Z,94804.46
2019-02-22T04:52:43.287Z,94808.70
2019-02-22T04:55:11.975Z,94814.63
2019-02-22T04:57:40.261Z,94816.34
2019-02-22T05:00:08.748Z,94812.09
2019-02-22T05:02:36.656Z,94818.02
2019-02-22T05:05:05.719Z,94821.00
2019-02-22T05:07:33.853Z,94816.75
2019-02-22T05:10:02.263Z,94823.53
2019-02-22T05:12:30.485Z,94824.80
2019-02-22T05:15:11.463Z,94827.76
2019-02-22T05:17:38.578Z,94829.89
2019-02-22T05:20:25.911Z,94826.94
2019-02-22T05:23:03.248Z,94826.08
2019-02-22T05:25:31.218Z,94819.75
2019-02-22T05:27:59.490Z,94819.75
2019-02-22T05:30:27.370Z,94826.95
2019-02-22T05:32:55.660Z,94831.20
2019-02-22T05:35:23.175Z,94831.63
2019-02-22T05:37:51.759Z,94826.52
2019-02-22T05:40:19.877Z,94828.66
2019-02-22T05:42:48.070Z,94834.16
2019-02-22T05:45:15.987Z,94831.19
2019-02-22T05:47:44.578Z,94829.06
2019-02-22T05:50:13.283Z,94825.67
2019-02-22T05:52:41.922Z,94832.47
2019-02-22T05:55:10.102Z,94837.98
2019-02-22T05:57:38.283Z,94842.21
2019-02-22T06:00:07.235Z,94850.25
2019-02-22T06:02:35.152Z,94855.77
2019-02-22T06:05:03.694Z,94857.48
2019-02-22T06:07:31.549Z,94850.69
2019-02-22T06:10:00.100Z,94853.66
2019-02-22T06:12:34.453Z,94861.73
2019-02-22T06:15:04.799Z,94868.09
2019-02-22T06:17:33.475Z,94876.58
2019-02-22T06:20:02.077Z,94870.63
2019-02-22T06:22:30.668Z,94877.44
2019-02-22T06:24:59.235Z,94873.20
2019-02-22T06:27:27.462Z,94871.50
2019-02-22T06:29:55.069Z,94866.42
2019-02-22T06:32:23.299Z,94864.28
2019-02-22T06:34:51.482Z,94865.14
2019-02-22T06:37:20.074Z,94868.97
2019-02-22T06:39:48.561Z,94872.36
2019-02-22T06:42:16.803Z,94877.89
2019-02-22T06:44:45.495Z,94880.86
2019-02-22T06:47:13.724Z,94885.51
2019-02-22T06:49:44.437Z,94885.09
2019-02-22T06:52:18.843Z,94891.91
2019-02-22T06:54:47.244Z,94895.70
2019-02-22T06:57:15.142Z,94895.30
2019-02-22T06:59:43.484Z,94899.12
2019-02-22T07:02:11.681Z,94896.98
2019-02-22T07:04:39.895Z,94896.14
2019-02-22T07:07:08.115Z,94902.93
2019-02-22T07:09:36.716Z,94904.22
2019-02-22T07:12:08.965Z,94903.76
2019-02-22T07:14:37.514Z,94899.96
2019-02-22T07:20:33.903Z,94900.38
2019-02-22T07:23:02.139Z,94910.16
2019-02-22T07:25:30.053Z,94910.16
2019-02-22T07:27:58.268Z,94915.23
2019-02-22T07:30:26.918Z,94914.38
2019-02-22T07:32:55.619Z,94912.28
2019-02-22T07:35:23.928Z,94919.48
2019-02-22T07:37:51.829Z,94923.72
2019-02-22T07:40:20.219Z,94927.55
2019-02-22T07:42:48.107Z,94927.13
2019-02-22T07:45:16.526Z,94928.38
2019-02-22T07:47:44.800Z,94933.47
2019-02-22T07:50:12.258Z,94938.16
2019-02-22T07:52:40.959Z,94939.43
2019-02-22T07:55:10.290Z,94935.59
2019-02-22T07:57:40.112Z,94939.86
2019-02-22T08:00:14.825Z,94944.95
2019-02-22T08:02:43.353Z,94948.76
2019-02-22T08:05:11.890Z,94944.94
2019-02-22T08:07:40.163Z,94950.91
2019-02-22T08:10:08.596Z,94956.81
2019-02-22T08:12:36.833Z,94949.61
2019-02-22T08:15:05.110Z,94946.66
2019-02-22T08:17:33.711Z,94952.59
2019-02-22T08:20:02.296Z,94957.67
2019-02-22T08:22:30.805Z,94959.81
2019-02-22T08:24:59.365Z,94958.13
2019-02-22T08:27:27.859Z,94967.03
2019-02-22T08:29:56.154Z,94964.04
2019-02-22T08:32:24.414Z,94970.86
2019-02-22T08:34:52.936Z,94968.73
2019-02-22T08:37:21.089Z,94972.97
2019-02-22T08:39:58.335Z,94977.23
2019-02-22T08:42:29.720Z,94981.88
2019-02-22T08:44:58.309Z,94970.87
2019-02-22T08:47:26.841Z,94969.19
2019-02-22T08:49:55.392Z,94966.62
2019-02-22T08:52:23.671Z,94967.91
2019-02-22T08:54:51.900Z,94972.16
2019-02-22T08:57:20.051Z,94970.86
2019-02-22T08:59:48.678Z,94969.59
2019-02-22T09:02:17.319Z,94969.17
2019-02-22T09:04:45.194Z,94971.30
2019-02-22T09:07:13.772Z,94982.34
2019-02-22T09:09:42.064Z,94979.78
2019-02-22T09:12:09.561Z,94980.20
2019-02-22T09:14:37.751Z,94983.59
2019-02-22T09:17:05.601Z,94984.87
2019-02-22T09:19:33.545Z,94978.52
2019-02-22T09:22:02.121Z,94979.79
2019-02-22T09:24:30.663Z,94982.34
2019-02-22T09:26:58.800Z,94984.89
2019-02-22T09:29:27.013Z,94986.61
2019-02-22T09:31:55.148Z,94990.84
2019-02-22T09:34:23.749Z,94993.83
2019-02-22T09:36:52.001Z,95000.19
2019-02-22T09:39:20.017Z,94999.34
2019-02-22T09:41:47.444Z,95000.19
2019-02-22T09:44:16.063Z,94999.35
2019-02-22T09:46:44.313Z,95004.86
2019-02-22T09:49:12.922Z,95002.73
2019-02-22T09:51:41.469Z,95012.94
2019-02-22T09:54:10.033Z,95006.16
2019-02-22T09:56:38.542Z,95007.44
2019-02-22T09:59:06.720Z,95019.77
2019-02-22T10:01:34.971Z,95021.04
2019-02-22T10:04:02.949Z,95029.53
2019-02-22T10:06:31.469Z,95038.89
2019-02-22T10:09:00.018Z,95036.34
2019-02-22T10:11:28.286Z,95035.48
2019-02-22T10:14:06.337Z,95035.92
2019-02-22T10:16:36.389Z,95035.08
2019-02-22T10:19:04.603Z,95041.02
2019-02-22T10:21:32.930Z,95042.28
2019-02-22T10:24:01.566Z,95045.70
2019-02-22T10:26:29.443Z,95047.39
2019-02-22T10:28:57.630Z,95051.21
2019-02-22T10:31:25.890Z,95050.80
2019-02-22T10:33:54.013Z,95046.95
2019-02-22T10:36:22.676Z,95048.67
2019-02-22T10:38:51.015Z,95058.01
2019-02-22T10:41:19.437Z,95057.13
2019-02-22T10:43:47.430Z,95067.75
2019-02-22T10:46:15.910Z,95069.44
2019-02-22T10:48:44.534Z,95075.81
2019-02-22T10:51:12.864Z,95077.95
2019-02-22T10:53:41.454Z,95076.24
2019-02-22T10:56:09.645Z,95076.30
2019-02-22T10:58:37.901Z,95076.29
2019-02-22T11:01:06.109Z,95078.43
2019-02-22T11:03:34.059Z,95064.77
2019-02-22T11:06:02.699Z,95060.37
2019-02-22T11:08:31.046Z,95056.67
2019-02-22T11:10:58.464Z,95054.02
2019-02-22T11:13:26.780Z,95049.05
2019-02-22T11:15:55.033Z,95047.73
2019-02-22T11:18:22.945Z,95047.57
2019-02-22T11:20:51.028Z,95053.48
2019-02-22T11:23:19.315Z,95050.52
2019-02-22T11:25:47.489Z,95049.33
2019-02-22T11:28:15.698Z,95050.83
2019-02-22T11:30:44.259Z,95053.08
2019-02-22T11:33:12.875Z,95051.45
2019-02-22T11:35:41.529Z,95059.63
2019-02-22T11:38:09.725Z,95057.59
2019-02-22T11:40:37.697Z,95057.53
2019-02-22T11:43:06.174Z,95051.48
2019-02-22T11:45:34.712Z,95052.30
2019-02-22T11:48:09.208Z,95051.32
2019-02-22T11:50:39.289Z,95057.24
2019-02-22T11:53:07.527Z,95056.78
2019-02-22T11:58:37.628Z,95061.13
2019-02-22T12:04:08.367Z,95053.66
2019-02-22T12:09:55.398Z,95053.14
2019-02-22T12:15:25.610Z,95051.86
2019-02-22T12:18:36.364Z,95060.30
2019-02-22T12:21:10.630Z,95062.15
2019-02-22T12:23:38.965Z,95063.91
2019-02-22T12:26:07.531Z,95069.42
2019-02-22T12:28:35.476Z,95075.22
2019-02-22T12:31:03.821Z,95082.53
2019-02-22T12:33:31.336Z,95080.04
2019-02-22T12:35:59.902Z,95078.34
2019-02-22T12:38:28.353Z,95077.58
2019-02-22T12:41:08.099Z,95089.09
2019-02-22T12:46:56.817Z,95086.61
2019-02-22T12:49:44.579Z,95089.27
2019-02-22T12:52:12.874Z,95094.41
2019-02-22T12:54:41.441Z,95099.99
2019-02-22T12:57:10.011Z,95102.59
2019-02-22T13:03:29.596Z,95109.41
2019-02-22T13:05:58.186Z,95108.58
2019-02-22T13:08:26.726Z,95111.14
2019-02-22T13:10:55.479Z,95104.30
2019-02-22T13:14:04.159Z,95104.73
2019-02-22T13:16:32.745Z,95103.44
2019-02-22T13:19:00.730Z,95105.94
2019-02-22T13:21:29.435Z,95110.17
2019-02-22T13:23:57.656Z,95111.38
2019-02-22T13:29:34.862Z,95110.00
2019-02-22T13:32:03.069Z,95110.88
2019-02-22T13:40:53.169Z,95116.12
2019-02-22T13:43:21.779Z,95119.99
2019-02-22T13:48:51.694Z,95119.16
2019-02-22T13:51:19.969Z,95123.83
2019-02-22T13:53:48.607Z,95117.86
2019-02-22T13:56:15.813Z,95121.69
2019-02-22T13:58:44.072Z,95125.92
2019-02-22T14:01:12.269Z,95127.56
2019-02-22T14:03:52.050Z,95125.40
2019-02-22T14:09:22.421Z,95123.84
2019-02-22T14:15:37.927Z,95121.73
2019-02-22T14:18:00.781Z,95118.82
2019-02-22T14:23:30.923Z,95122.53
2019-02-22T14:26:10.682Z,95125.77
2019-02-22T14:31:59.713Z,95115.87
2019-02-22T14:38:10.402Z,95107.39
2019-02-22T14:40:50.610Z,95111.14
2019-02-22T14:46:27.712Z,95120.94
2019-02-22T14:49:36.425Z,95116.91
2019-02-22T14:52:05.235Z,95110.48
2019-02-22T14:54:33.912Z,95101.80
2019-02-22T14:57:02.180Z,95102.83
2019-02-22T14:59:30.671Z,95099.94
2019-02-22T15:01:58.301Z,95101.52
2019-02-22T15:04:26.505Z,95098.13
2019-02-22T15:06:54.461Z,95099.14
2019-02-22T15:09:23.090Z,95095.81
2019-02-22T15:11:51.775Z,95102.34
2019-02-22T15:14:20.415Z,95104.34
2019-02-22T15:17:07.841Z,95107.25
2019-02-22T15:19:36.061Z,95117.66
2019-02-22T15:22:04.698Z,95123.80
2019-02-22T15:24:33.214Z,95119.55
2019-02-22T15:27:12.773Z,95122.92
2019-02-22T15:29:40.950Z,95118.93
2019-02-22T15:32:09.235Z,95117.34
2019-02-22T15:34:37.589Z,95107.94
2019-02-22T15:37:05.086Z,95111.92
2019-02-22T15:39:33.477Z,95117.72
2019-02-22T15:42:02.169Z,95117.91
2019-02-22T15:44:29.377Z,95133.38
2019-02-22T15:46:58.074Z,95131.74
2019-02-22T15:49:26.138Z,95130.00
2019-02-22T15:51:54.802Z,95126.10
2019-02-22T15:54:23.107Z,95126.22
2019-02-22T15:56:50.982Z,95123.31
2019-02-22T15:59:20.940Z,95125.37
2019-02-22T16:01:56.129Z,95128.02
2019-02-22T16:04:54.955Z,95126.26
2019-02-22T16:07:23.581Z,95128.85
2019-02-22T16:10:32.181Z,95136.30
2019-02-22T16:13:00.900Z,95143.86
2019-02-22T16:18:31.305Z,95145.63
2019-02-22T16:21:39.630Z,95150.67
2019-02-22T16:24:06.876Z,95157.66
2019-02-22T16:26:52.041Z,95159.48
2019-02-22T16:29:20.399Z,95152.34
2019-02-22T16:34:48.481Z,95165.58
2019-02-22T16:37:17.197Z,95171.56
2019-02-22T16:39:45.761Z,95173.67
2019-02-22T16:42:14.016Z,95176.63
2019-02-22T16:44:42.281Z,95182.59
2019-02-22T16:47:50.910Z,95180.84
2019-02-22T16:50:50.446Z,95180.75
2019-02-22T16:53:18.306Z,95184.48
2019-02-22T16:55:46.630Z,95181.02
2019-02-22T16:58:14.705Z,95188.55
2019-02-22T17:00:42.623Z,95193.16
2019-02-22T17:03:11.197Z,95189.27
2019-02-22T17:05:38.776Z,95190.50
2019-02-22T17:08:06.662Z,95188.36
2019-02-22T17:10:34.929Z,95189.61
2019-02-22T17:13:03.137Z,95195.95
2019-02-22T17:15:31.385Z,95195.08
2019-02-22T17:20:39.932Z,95194.61
2019-02-22T17:23:08.618Z,95198.41
2019-02-22T17:25:36.875Z,95204.34
2019-02-22T17:28:04.730Z,95203.05
2019-02-22T17:30:33.007Z,95203.44
2019-02-22T17:33:01.246Z,95207.23
2019-02-22T17:35:29.429Z,95211.44
2019-02-22T17:37:58.002Z,95216.50
2019-02-22T17:40:26.181Z,95216.48
2019-02-22T17:42:54.464Z,95216.39
2019-02-22T17:45:23.162Z,95215.42
2019-02-22T17:47:51.546Z,95225.39
2019-02-22T17:50:19.721Z,95226.95
2019-02-22T17:52:48.104Z,95228.92
2019-02-22T17:55:24.415Z,95228.38
2019-02-22T17:57:53.068Z,95229.46
2019-02-22T18:00:22.255Z,95230.59
2019-02-22T18:02:50.952Z,95231.70
2019-02-22T18:05:19.245Z,95221.37
2019-02-22T18:07:47.826Z,95224.20
2019-02-22T18:10:16.065Z,95231.30
2019-02-22T18:12:44.808Z,95239.66
2019-02-22T18:15:12.875Z,95233.64
2019-02-22T18:17:42.060Z,95241.11
2019-02-22T18:20:10.586Z,95234.29
2019-02-22T18:23:19.185Z,95231.71
2019-02-22T18:25:59.712Z,95239.30
2019-02-22T18:31:48.392Z,95234.89
2019-02-22T18:34:16.981Z,95233.45
2019-02-22T18:36:45.610Z,95234.55
2019-02-22T18:39:13.507Z,95228.91
2019-02-22T18:41:42.236Z,95227.73
2019-02-22T18:44:10.211Z,95231.55
2019-02-22T18:46:37.764Z,95231.80
2019-02-22T18:49:05.983Z,95234.70
2019-02-22T18:51:33.515Z,95236.39
2019-02-22T18:54:02.103Z,95238.88
2019-02-22T18:56:30.797Z,95237.59
2019-02-22T18:58:58.686Z,95236.64
2019-02-22T19:01:26.647Z,95241.77
2019-02-22T19:03:55.317Z,95242.63
2019-02-22T19:06:22.898Z,95240.02
2019-02-22T19:08:51.778Z,95245.52
2019-02-22T19:11:20.332Z,95248.95
2019-02-22T19:14:08.222Z,95251.48
2019-02-22T19:16:36.561Z,95253.06
2019-02-22T19:22:14.195Z,95251.19
2019-02-22T19:24:42.806Z,95257.16
2019-02-22T19:27:10.839Z,95258.38
2019-02-22T19:29:39.451Z,95260.23
2019-02-22T19:32:08.009Z,95263.11
2019-02-22T19:34:36.840Z,95261.38
2019-02-22T19:37:04.803Z,95258.11
2019-02-22T19:39:33.091Z,95267.52
2019-02-22T19:42:01.794Z,95262.05
2019-02-22T19:44:30.461Z,95260.77
2019-02-22T19:46:59.217Z,95263.73
2019-02-22T19:49:27.978Z,95259.94
2019-02-22T19:51:56.241Z,95268.92
2019-02-22T19:54:24.517Z,95257.45
2019-02-22T19:56:52.838Z,95260.97
2019-02-22T19:59:21.726Z,95266.33
2019-02-22T20:01:49.924Z,95269.34
2019-02-22T20:04:17.858Z,95269.58
2019-02-22T20:06:46.326Z,95268.98
2019-02-22T20:09:14.612Z,95266.38
2019-02-22T20:11:43.132Z,95265.75
2019-02-22T20:14:11.757Z,95271.61
2019-02-22T20:16:40.097Z,95270.70
2019-02-22T20:19:08.752Z,95261.14
2019-02-22T20:21:36.685Z,95263.80
2019-02-22T20:24:04.618Z,95267.17
2019-02-22T20:26:33.229Z,95265.49
2019-02-22T20:29:01.502Z,95269.58
2019-02-22T20:31:29.779Z,95266.42
2019-02-22T20:33:58.165Z,95277.33
2019-02-22T20:36:28.678Z,95275.36
2019-02-22T20:39:15.029Z,95274.80
2019-02-22T20:45:04.338Z,95289.88
2019-02-22T20:47:32.712Z,95288.78
2019-02-22T20:50:01.387Z,95289.68
2019-02-22T20:53:09.775Z,95292.71
2019-02-22T20:55:49.842Z,95296.09
2019-02-22T21:01:16.632Z,95303.20
2019-02-22T21:03:45.231Z,95299.31
2019-02-22T21:06:14.031Z,95298.87
2019-02-22T21:08:42.636Z,95297.14
2019-02-22T21:11:10.502Z,95295.38
2019-02-22T21:13:38.753Z,95291.42
2019-02-22T21:16:38.875Z,95290.17
2019-02-22T21:25:40.671Z,95297.55
2019-02-22T21:31:07.782Z,95302.73
2019-02-22T21:36:56.240Z,95303.98
2019-02-22T21:39:43.781Z,95304.30
2019-02-22T21:42:19.822Z,95291.73
2019-02-22T21:47:54.822Z,95293.73
2019-02-22T21:50:26.284Z,95290.57
2019-02-22T21:55:56.131Z,95294.88
2019-02-22T21:59:04.725Z,95301.47
2019-02-22T22:01:32.642Z,95303.23
2019-02-22T22:04:01.249Z,95306.34
2019-02-22T22:06:29.579Z,95308.60
2019-02-22T22:08:58.066Z,95303.09
2019-02-22T22:11:25.962Z,95305.80
2019-02-22T22:13:54.628Z,95306.61
2019-02-22T22:16:23.253Z,95301.98
2019-02-22T22:18:52.019Z,95302.64
2019-02-22T22:21:20.212Z,95294.80
2019-02-22T22:23:48.495Z,95293.84
2019-02-22T22:26:16.655Z,95292.42
2019-02-22T22:28:44.904Z,95293.88
2019-02-22T22:31:13.122Z,95290.97
2019-02-22T22:33:41.399Z,95293.58
2019-02-22T22:36:09.683Z,95295.75
2019-02-22T22:38:37.858Z,95297.02
2019-02-22T22:41:06.157Z,95298.89
2019-02-22T22:43:34.409Z,95295.39
2019-02-22T22:46:03.119Z,95293.48
2019-02-22T22:48:31.411Z,95294.73
2019-02-22T22:51:00.198Z,95292.70
2019-02-22T22:53:28.744Z,95296.00
2019-02-22T22:55:56.673Z,95292.62
2019-02-22T22:58:24.681Z,95286.61
2019-02-22T23:01:34.709Z,95294.50
2019-02-22T23:04:03.412Z,95289.06
2019-02-22T23:06:51.093Z,95287.69
2019-02-22T23:18:22.587Z,95289.74
2019-02-22T23:21:09.829Z,95290.70
2019-02-22T23:23:37.330Z,95290.04
2019-02-22T23:26:05.553Z,95291.91
2019-02-22T23:29:13.813Z,95287.84
2019-02-22T23:31:42.589Z,95290.75
2019-02-22T23:34:10.583Z,95293.54
2019-02-22T23:40:01.211Z,95291.42
2019-02-22T23:42:29.754Z,95291.00
2019-02-22T23:50:58.363Z,95292.95
2019-02-22T23:54:06.988Z,95292.09
2019-02-22T23:56:35.678Z,95290.33
2019-02-22T23:59:04.134Z,95298.42
